Time;durP1;ratioP1;P1;durP2;ratioP2;P2;SDS_P1;SDS_P2;PMS_P1;PMS_P2;Temp;Humidity;BMP_temperature;BMP_pressure;BME280_temperature;BME280_humidity;BME280_pressure;Samples;Min_cycle;Max_cycle;Signal;HPM_P1;HPM_P2
2022/02/01 00:02:35;;;;;;;;;19.25;17.00;;;;;5.53;57.21;102498.19;5009557;28;45551;-60
2022/02/01 00:05:17;;;;;;;;;19.00;17.00;;;;;5.53;56.83;102501.69;5008979;28;45824;-62
2022/02/01 00:08:25;;;;;;;;;19.50;14.00;;;;;5.54;57.08;102505.19;5012793;28;45831;-65
2022/02/01 00:11:06;;;;;;;;;15.50;12.25;;;;;5.52;56.52;102509.53;5010151;28;45783;-67
2022/02/01 00:18:47;;;;;;;;;10.75;9.50;;;;;5.52;56.73;102493.84;5009059;28;45943;-64
2022/02/01 00:37:35;;;;;;;;;16.50;9.50;;;;;5.60;56.08;102507.69;5010381;28;45547;-63
2022/02/01 00:40:09;;;;;;;;;8.75;6.00;;;;;5.58;56.44;102505.09;5010424;28;45424;-65
2022/02/01 00:42:34;;;;;;;;;9.00;8.50;;;;;5.58;57.09;102509.47;5009125;28;45445;-64
2022/02/01 00:44:59;;;;;;;;;9.00;7.75;;;;;5.58;56.42;102509.47;5007730;28;45591;-62
2022/02/01 00:47:25;;;;;;;;;6.75;5.50;;;;;5.55;57.28;102501.69;5007145;28;45469;-64
2022/02/01 00:49:50;;;;;;;;;12.00;9.00;;;;;5.56;56.83;102504.28;5009052;28;45686;-61
2022/02/01 00:52:16;;;;;;;;;12.25;6.25;;;;;5.52;56.94;102519.97;5008214;28;45566;-60
2022/02/01 00:54:41;;;;;;;;;12.25;7.25;;;;;5.51;56.47;102516.50;5012167;28;46927;-60
2022/02/01 00:57:11;;;;;;;;;8.25;7.50;;;;;5.50;56.08;102524.38;5011130;28;45503;-60
2022/02/01 00:59:36;;;;;;;;;11.75;7.00;;;;;5.50;57.31;102527.84;5008441;28;45525;-63
2022/02/01 01:02:02;;;;;;;;;13.50;7.00;;;;;5.51;57.11;102526.09;5008623;28;45464;-63
2022/02/01 01:04:28;;;;;;;;;10.75;8.00;;;;;5.51;56.34;102537.41;5010107;28;45682;-67
2022/02/01 01:06:53;;;;;;;;;9.50;8.00;;;;;5.54;57.04;102547.00;5010033;28;45436;-67
2022/02/01 01:09:19;;;;;;;;;12.00;8.75;;;;;5.56;56.77;102546.09;5008154;28;45385;-67
2022/02/01 01:11:45;;;;;;;;;14.00;8.75;;;;;5.60;55.98;102546.91;5008607;28;45675;-60
2022/02/01 01:17:29;;;;;;;;;5.25;4.00;;;;;5.63;56.46;102536.44;5012481;28;45499;-60
2022/02/01 01:44:11;;;;;;;;;9.75;6.00;;;;;5.63;56.29;102504.22;5009896;28;45362;-63
2022/02/01 01:54:50;;;;;;;;;9.50;6.75;;;;;5.64;56.78;102506.81;5006698;28;45381;-63
2022/02/01 01:57:16;;;;;;;;;10.00;5.00;;;;;5.67;56.94;102509.38;5008390;28;45526;-63
2022/02/01 01:59:42;;;;;;;;;8.50;6.00;;;;;5.67;57.42;102514.59;5007658;28;45484;-65
2022/02/01 02:02:07;;;;;;;;;6.25;5.00;;;;;5.70;56.69;102514.59;5009417;28;45521;-62
2022/02/01 02:04:33;;;;;;;;;9.75;6.25;;;;;5.73;57.24;102504.09;5010269;28;45663;-64
2022/02/01 02:06:58;;;;;;;;;9.75;6.00;;;;;5.75;57.94;102507.53;5010479;28;45395;-62
2022/02/01 02:09:24;;;;;;;;;8.50;5.75;;;;;5.81;58.13;102511.84;5010559;28;46362;-63
2022/02/01 02:12:00;;;;;;;;;7.75;6.00;;;;;5.84;57.12;102507.44;5008835;28;45955;-62
2022/02/01 02:14:29;;;;;;;;;13.50;9.25;;;;;5.92;57.29;102507.38;5009170;28;45878;-62
2022/02/01 02:17:00;;;;;;;;;7.00;7.00;;;;;5.96;57.21;102503.00;5009771;28;45710;-61
2022/02/01 02:19:30;;;;;;;;;17.00;8.25;;;;;6.00;57.09;102515.16;5008849;28;45718;-62
2022/02/01 02:21:57;;;;;;;;;8.00;6.00;;;;;6.02;57.78;102516.88;5008854;28;45568;-62
2022/02/01 02:24:26;;;;;;;;;10.00;5.00;;;;;6.04;57.69;102522.94;5008356;28;45498;-61
2022/02/01 02:26:52;;;;;;;;;12.75;6.75;;;;;6.08;56.90;102518.53;5009673;28;46236;-62
2022/02/01 02:29:18;;;;;;;;;10.50;7.50;;;;;6.09;57.90;102518.53;5007889;28;45460;-62
2022/02/01 02:31:44;;;;;;;;;6.25;5.00;;;;;6.12;57.31;102517.63;5009646;28;45406;-62
2022/02/01 02:34:13;;;;;;;;;7.00;5.25;;;;;6.13;57.69;102509.75;5008140;28;45837;-60
2022/02/01 02:36:46;;;;;;;;;9.75;8.00;;;;;6.15;57.24;102505.34;5005019;28;45360;-63
2022/02/01 02:41:53;;;;;;;;;12.00;5.50;;;;;6.18;58.29;102499.25;5006166;28;45744;-67
2022/02/01 02:47:05;;;;;;;;;13.00;8.00;;;;;6.18;57.85;102509.72;5007467;28;45663;-63
2022/02/01 02:49:31;;;;;;;;;9.00;6.00;;;;;6.15;58.61;102494.88;5009440;28;45565;-64
2022/02/01 02:51:56;;;;;;;;;9.25;7.00;;;;;6.16;58.69;102480.06;5009729;28;45605;-63
2022/02/01 02:54:25;;;;;;;;;6.75;5.25;;;;;6.17;58.29;102465.25;5010255;28;45739;-63
2022/02/01 02:56:56;;;;;;;;;9.00;6.25;;;;;6.20;58.01;102458.22;5009374;28;45520;-63
2022/02/01 02:59:23;;;;;;;;;13.75;5.25;;;;;6.19;59.12;102453.00;5007827;28;45455;-63
2022/02/01 03:01:49;;;;;;;;;1.75;1.75;;;;;6.19;58.82;102451.25;5008799;28;45458;-63
2022/02/01 03:04:20;;;;;;;;;10.00;6.00;;;;;6.22;59.46;102461.66;5005771;28;45840;-63
2022/02/01 03:06:46;;;;;;;;;12.75;5.00;;;;;6.22;59.31;102459.06;5004961;28;45670;-63
2022/02/01 03:09:13;;;;;;;;;7.75;5.25;;;;;6.27;59.93;102466.84;4999020;28;45453;-63
2022/02/01 03:11:40;;;;;;;;;6.75;6.75;;;;;6.27;60.05;102466.84;5000180;28;45365;-64
2022/02/01 03:14:20;;;;;;;;;4.00;4.00;;;;;6.28;59.88;102460.72;5000076;28;45456;-64
2022/02/01 03:22:10;;;;;;;;;10.00;5.00;;;;;6.32;60.17;102442.34;5012797;28;45477;-63
2022/02/01 03:24:36;;;;;;;;;7.50;6.00;;;;;6.34;60.68;102431.84;5019772;28;45360;-64
2022/02/01 03:27:02;;;;;;;;;9.00;3.25;;;;;6.38;60.67;102441.38;5019590;28;45329;-64
2022/02/01 03:29:27;;;;;;;;;3.25;2.75;;;;;6.40;61.46;102431.78;5009006;28;45402;-64
2022/02/01 03:31:53;;;;;;;;;6.25;4.75;;;;;6.44;61.30;102439.53;5015967;28;45678;-63
2022/02/01 03:34:18;;;;;;;;;10.00;5.00;;;;;6.49;60.97;102449.09;5010722;28;45460;-64
2022/02/01 03:36:44;;;;;;;;;7.50;2.25;;;;;6.52;61.31;102446.41;5000229;28;45472;-64
2022/02/01 03:39:09;;;;;;;;;6.00;4.00;;;;;6.52;61.85;102449.91;5004033;28;45407;-64
2022/02/01 03:41:35;;;;;;;;;6.50;2.50;;;;;6.53;61.54;102459.47;5003830;28;45305;-63
2022/02/01 03:44:03;;;;;;;;;7.50;2.50;;;;;6.55;61.84;102460.31;5000077;28;45473;-63
2022/02/01 03:46:29;;;;;;;;;8.25;3.50;;;;;6.57;61.40;102453.31;4999655;28;46224;-64
2022/02/01 03:48:54;;;;;;;;;8.50;3.00;;;;;6.61;61.78;102427.94;4998981;28;45396;-64
2022/02/01 03:51:20;;;;;;;;;8.50;5.75;;;;;6.62;61.81;102422.69;4999969;28;45349;-64
2022/02/01 03:53:45;;;;;;;;;5.50;5.25;;;;;6.65;62.08;102425.28;4999986;28;45380;-64
2022/02/01 03:56:11;;;;;;;;;5.50;4.50;;;;;6.65;61.96;102411.31;4999803;28;46270;-64
2022/02/01 03:58:36;;;;;;;;;2.75;2.00;;;;;6.68;62.05;102422.59;5000120;28;45316;-61
2022/02/01 04:01:02;;;;;;;;;6.75;4.00;;;;;6.68;62.57;102416.50;4999979;28;45199;-61
2022/02/01 04:03:27;;;;;;;;;4.50;3.50;;;;;6.69;62.17;102412.97;5000205;28;45287;-61
2022/02/01 04:05:53;;;;;;;;;7.00;4.25;;;;;6.66;62.48;102415.66;4999241;28;45593;-62
2022/02/01 04:08:19;;;;;;;;;3.50;1.00;;;;;6.66;62.54;102418.28;4999748;28;45406;-61
2022/02/01 04:10:49;;;;;;;;;6.25;4.50;;;;;6.68;63.07;102412.13;4999936;28;45320;-62
2022/02/01 04:13:14;;;;;;;;;6.00;3.00;;;;;6.69;62.53;102410.34;4999088;28;45535;-61
2022/02/01 04:15:40;;;;;;;;;2.00;2.00;;;;;6.70;63.35;102410.31;4998955;28;46338;-61
2022/02/01 04:18:07;;;;;;;;;5.00;3.00;;;;;6.69;62.85;102411.22;5000989;28;45406;-62
2022/02/01 04:20:33;;;;;;;;;6.25;4.00;;;;;6.70;63.75;102409.47;5005430;28;45495;-62
2022/02/01 04:22:58;;;;;;;;;5.75;3.00;;;;;6.71;64.14;102403.34;5023596;28;45550;-61
2022/02/01 04:25:24;;;;;;;;;8.50;4.00;;;;;6.71;64.14;102399.00;5022668;28;45668;-62
2022/02/01 04:27:49;;;;;;;;;4.50;2.25;;;;;6.71;63.77;102404.22;5023531;28;45402;-62
2022/02/01 04:30:17;;;;;;;;;7.00;4.00;;;;;6.72;63.88;102410.31;5023158;28;45554;-61
2022/02/01 04:32:45;;;;;;;;;10.00;3.25;;;;;6.73;64.75;102404.19;5023292;28;45353;-62
2022/02/01 04:35:17;;;;;;;;;6.25;6.00;;;;;6.72;64.97;102412.94;5006430;28;46682;-62
2022/02/01 04:37:43;;;;;;;;;5.75;4.50;;;;;6.71;65.25;102417.31;5003500;28;45352;-62
2022/02/01 04:40:12;;;;;;;;;7.50;3.00;;;;;6.74;64.83;102411.16;5011246;28;45231;-62
2022/02/01 04:42:39;;;;;;;;;3.00;2.00;;;;;6.76;64.78;102401.50;5003043;28;45525;-62
2022/02/01 04:45:13;;;;;;;;;16.75;6.25;;;;;6.75;65.37;102401.53;5019926;28;45490;-62
2022/02/01 04:47:42;;;;;;;;;5.50;3.25;;;;;6.76;65.50;102408.50;5010054;28;45379;-62
2022/02/01 04:50:12;;;;;;;;;6.00;5.00;;;;;6.78;66.01;102402.34;5003130;28;45448;-61
2022/02/01 04:52:40;;;;;;;;;5.75;2.75;;;;;6.81;65.30;102397.06;5003052;28;45309;-62
2022/02/01 04:55:06;;;;;;;;;10.25;2.75;;;;;6.84;66.09;102390.91;5002972;28;45325;-62
2022/02/01 04:57:31;;;;;;;;;6.25;2.75;;;;;6.84;65.87;102381.28;5002655;28;45332;-61
2022/02/01 04:59:57;;;;;;;;;6.00;3.00;;;;;6.89;66.13;102373.38;5003150;28;45416;-61
2022/02/01 05:02:22;;;;;;;;;5.50;2.25;;;;;6.89;65.88;102368.13;5002974;28;45254;-61
2022/02/01 05:04:48;;;;;;;;;7.00;3.00;;;;;6.93;66.52;102375.03;5002849;28;45414;-62
2022/02/01 05:07:13;;;;;;;;;6.25;5.00;;;;;7.00;66.33;102382.75;5002960;28;45199;-61
2022/02/01 05:09:39;;;;;;;;;5.50;3.00;;;;;7.00;66.71;102381.88;5002945;28;45245;-62
2022/02/01 05:12:08;;;;;;;;;9.75;2.00;;;;;6.99;66.67;102374.91;5002666;28;45227;-62
2022/02/01 05:14:34;;;;;;;;;5.00;3.00;;;;;6.95;66.82;102379.38;5002631;28;45493;-62
2022/02/01 05:17:01;;;;;;;;;4.50;1.00;;;;;6.97;66.65;102387.19;5002481;28;45392;-62
2022/02/01 05:21:59;;;;;;;;;4.50;2.00;;;;;7.00;67.28;102402.84;5017301;28;45402;-61
2022/02/01 05:24:25;;;;;;;;;6.00;5.00;;;;;6.99;67.34;102388.03;5022431;28;45929;-61
2022/02/01 05:26:54;;;;;;;;;6.00;2.00;;;;;7.00;67.85;102376.66;5022254;28;45363;-61
2022/02/01 05:29:19;;;;;;;;;9.00;2.00;;;;;7.04;67.25;102382.72;5021303;28;45308;-61
2022/02/01 05:31:45;;;;;;;;;7.00;3.00;;;;;7.04;67.67;102386.19;5022155;28;45520;-61
2022/02/01 05:34:11;;;;;;;;;3.00;2.00;;;;;7.05;68.03;102395.78;5013626;28;45305;-61
2022/02/01 05:36:36;;;;;;;;;8.00;3.50;;;;;7.07;67.54;102400.97;5002509;28;45254;-61
2022/02/01 05:39:17;;;;;;;;;9.00;2.50;;;;;7.07;67.74;102393.97;5005652;28;45203;-61
2022/02/01 05:41:43;;;;;;;;;4.75;3.50;;;;;7.10;68.13;102380.81;5004956;28;45467;-61
2022/02/01 05:44:08;;;;;;;;;7.25;5.00;;;;;7.09;68.25;102363.38;5001971;28;45350;-61
2022/02/01 05:46:35;;;;;;;;;7.50;2.50;;;;;7.11;68.37;102361.59;5002090;28;45244;-61
2022/02/01 05:49:02;;;;;;;;;9.00;3.00;;;;;7.12;68.21;102352.00;5002065;28;45221;-61
2022/02/01 05:51:27;;;;;;;;;10.00;3.00;;;;;7.13;68.37;102362.44;5002205;28;45286;-61
2022/02/01 05:53:53;;;;;;;;;3.25;2.75;;;;;7.13;68.67;102349.34;5002173;28;45309;-61
2022/02/01 05:56:18;;;;;;;;;7.50;2.75;;;;;7.14;68.65;102350.19;5001976;28;45276;-62
2022/02/01 05:58:44;;;;;;;;;2.50;1.00;;;;;7.17;68.51;102339.63;5002184;28;45282;-62
2022/02/01 06:01:09;;;;;;;;;2.00;2.00;;;;;7.22;69.08;102327.31;5001870;28;45460;-60
2022/02/01 06:03:35;;;;;;;;;6.75;1.50;;;;;7.26;68.95;102326.34;5001852;28;45765;-61
2022/02/01 06:06:02;;;;;;;;;7.75;3.00;;;;;7.30;69.25;102332.41;5001650;28;45254;-64
2022/02/01 06:08:27;;;;;;;;;6.25;3.00;;;;;7.31;69.21;102327.13;5002077;28;45563;-62
2022/02/01 06:10:53;;;;;;;;;2.50;2.50;;;;;7.30;69.41;102321.94;5001778;28;45360;-64
2022/02/01 06:13:18;;;;;;;;;8.50;4.50;;;;;7.37;69.30;102334.00;5016924;28;45613;-61
2022/02/01 06:15:44;;;;;;;;;7.25;3.00;;;;;7.38;69.32;102322.63;5001611;28;45417;-60
2022/02/01 06:18:09;;;;;;;;;5.00;2.00;;;;;7.41;70.82;102319.94;5011106;28;45479;-60
2022/02/01 06:20:35;;;;;;;;;10.25;5.50;;;;;7.75;71.59;102339.31;5007895;28;45400;-60
2022/02/01 06:23:01;;;;;;;;;57.50;36.25;;;;;7.91;70.63;102307.50;5009862;28;46799;-61
2022/02/01 06:28:11;;;;;;;;;5.25;3.00;;;;;8.12;69.64;102318.34;5021505;28;45318;-61
2022/02/01 06:30:37;;;;;;;;;7.00;4.00;;;;;8.12;69.14;102320.09;5018360;28;45308;-61
2022/02/01 06:33:02;;;;;;;;;7.75;6.25;;;;;8.10;69.34;102320.13;5012791;28;45470;-61
2022/02/01 06:35:30;;;;;;;;;5.75;2.50;;;;;8.23;71.24;102319.84;5010059;28;45248;-61
2022/02/01 06:37:56;;;;;;;;;10.00;3.00;;;;;8.37;70.54;102323.91;5008481;28;45404;-60
2022/02/01 06:40:21;;;;;;;;;7.00;2.00;;;;;8.47;69.12;102316.66;5010392;28;45518;-62
2022/02/01 06:42:47;;;;;;;;;7.00;2.00;;;;;8.43;68.50;102320.25;5007343;28;45438;-62
2022/02/01 06:45:13;;;;;;;;;6.00;2.00;;;;;8.36;68.56;102330.03;5001142;28;45312;-62
2022/02/01 06:47:39;;;;;;;;;2.75;2.75;;;;;8.29;68.66;102328.41;5001247;28;45221;-61
2022/02/01 06:50:05;;;;;;;;;5.00;2.00;;;;;8.23;68.70;102318.09;5007788;28;45319;-60
2022/02/01 06:52:32;;;;;;;;;7.75;2.00;;;;;8.21;69.01;102327.75;5016668;28;46219;-60
2022/02/01 06:55:02;;;;;;;;;7.00;2.00;;;;;8.18;68.80;102329.59;5015891;28;45466;-59
2022/02/01 06:57:28;;;;;;;;;2.00;2.00;;;;;8.11;68.95;102323.63;5009476;28;45315;-60
2022/02/01 06:59:53;;;;;;;;;2.00;2.00;;;;;8.06;68.95;102320.25;5011845;28;45481;-60
2022/02/01 07:02:19;;;;;;;;;4.00;3.00;;;;;8.04;69.29;102327.28;5014299;28;45250;-60
2022/02/01 07:04:46;;;;;;;;;2.00;2.00;;;;;8.03;69.41;102315.94;5020933;28;45337;-60
2022/02/01 07:07:12;;;;;;;;;3.50;3.00;;;;;8.06;69.45;102329.00;5020852;28;45253;-60
2022/02/01 07:09:39;;;;;;;;;7.75;2.75;;;;;8.07;69.38;102325.47;5020785;28;45312;-61
2022/02/01 07:12:05;;;;;;;;;4.00;2.25;;;;;8.05;69.20;102331.63;5020290;28;46045;-60
2022/02/01 07:14:30;;;;;;;;;13.00;5.50;;;;;8.04;69.76;102314.16;5020683;28;45326;-60
2022/02/01 07:16:55;;;;;;;;;4.25;2.00;;;;;8.03;69.65;102299.31;5002366;28;45376;-60
2022/02/01 07:19:21;;;;;;;;;9.50;5.75;;;;;8.03;69.75;102307.19;5019464;28;45404;-60
2022/02/01 07:21:48;;;;;;;;;5.50;2.75;;;;;8.03;70.14;102318.56;5013816;28;45404;-60
2022/02/01 07:24:16;;;;;;;;;7.25;5.50;;;;;8.05;70.23;102318.50;5014531;28;45509;-59
2022/02/01 07:26:53;;;;;;;;;10.25;3.00;;;;;8.02;70.40;102322.09;5007449;28;45494;-59
2022/02/01 07:29:19;;;;;;;;;8.75;3.25;;;;;8.03;70.64;102328.19;5004500;28;45616;-60
2022/02/01 07:31:45;;;;;;;;;6.25;3.50;;;;;7.99;70.59;102327.41;5008989;28;45340;-59
2022/02/01 07:34:12;;;;;;;;;7.00;2.25;;;;;8.01;71.13;102322.97;5003651;28;45333;-59
2022/02/01 07:36:37;;;;;;;;;6.75;3.00;;;;;8.02;71.30;102329.94;5013575;28;45364;-59
2022/02/01 07:39:06;;;;;;;;;11.75;5.00;;;;;8.03;71.50;102320.31;5008467;28;45456;-60
2022/02/01 07:41:32;;;;;;;;;4.50;3.00;;;;;8.04;71.79;102307.16;5010402;28;46169;-60
2022/02/01 07:43:57;;;;;;;;;4.00;4.00;;;;;8.05;71.52;102300.13;5006106;28;45195;-60
2022/02/01 07:46:23;;;;;;;;;4.50;2.50;;;;;8.06;71.77;102294.03;5005127;28;45369;-59
2022/02/01 07:48:49;;;;;;;;;10.50;3.00;;;;;8.06;72.07;102294.03;5014213;28;45345;-59
2022/02/01 07:51:14;;;;;;;;;13.75;3.50;;;;;8.07;72.26;102280.84;5006626;28;45400;-60
2022/02/01 07:53:40;;;;;;;;;6.50;5.75;;;;;8.08;72.30;102281.72;5013697;28;45440;-60
2022/02/01 07:56:05;;;;;;;;;2.75;2.75;;;;;8.09;72.24;102268.56;5014538;28;45392;-58
2022/02/01 07:58:31;;;;;;;;;2.75;2.00;;;;;8.12;72.33;102268.47;5014486;28;45533;-58
2022/02/01 08:00:56;;;;;;;;;;;;;;;8.15;72.38;102271.94;5015278;28;45379;-59
2022/02/01 08:03:22;;;;;;;;;5.75;1.25;;;;;8.16;72.62;102257.91;5010147;28;45341;-59
2022/02/01 08:05:47;;;;;;;;;5.25;1.75;;;;;8.18;72.74;102258.72;5013568;28;45376;-61
2022/02/01 08:08:13;;;;;;;;;3.00;1.00;;;;;8.20;72.63;102262.16;5014037;28;45345;-60
2022/02/01 08:10:51;;;;;;;;;3.00;2.00;;;;;8.20;72.87;102256.91;5012455;28;46443;-58
2022/02/01 08:21:02;;;;;;;;;4.25;3.75;;;;;8.36;73.15;102255.66;5008212;28;45528;-61
2022/02/01 08:23:27;;;;;;;;;7.25;2.50;;;;;8.41;73.11;102247.69;5012625;28;45387;-58
2022/02/01 08:25:54;;;;;;;;;5.50;2.25;;;;;8.43;72.77;102241.47;5009687;28;45447;-59
2022/02/01 08:28:21;;;;;;;;;10.50;6.00;;;;;8.45;72.69;102252.78;5010767;28;45828;-59
2022/02/01 08:30:50;;;;;;;;;8.25;4.25;;;;;8.46;72.76;102246.66;5010260;28;45435;-59
2022/02/01 08:33:16;;;;;;;;;6.00;3.00;;;;;8.47;72.59;102243.13;5011410;28;45273;-60
2022/02/01 08:35:42;;;;;;;;;5.50;2.75;;;;;8.49;72.82;102243.09;5010951;28;45222;-61
2022/02/01 08:38:07;;;;;;;;;6.75;3.00;;;;;8.47;72.51;102235.25;5011670;28;45544;-61
2022/02/01 08:40:33;;;;;;;;;7.25;2.00;;;;;8.48;72.92;102233.47;5009954;28;45294;-61
2022/02/01 08:42:58;;;;;;;;;5.75;3.00;;;;;8.48;72.69;102217.72;5011147;28;45254;-60
2022/02/01 08:45:25;;;;;;;;;4.50;2.00;;;;;8.53;72.69;102221.97;5006461;28;45543;-60
2022/02/01 08:47:53;;;;;;;;;3.00;2.25;;;;;8.57;72.67;102217.47;5016961;28;45509;-60
2022/02/01 08:50:26;;;;;;;;;4.00;2.75;;;;;8.59;72.39;102228.78;5010007;28;46077;-60
2022/02/01 08:52:53;;;;;;;;;8.00;2.50;;;;;8.59;72.38;102211.25;5019643;28;45519;-60
2022/02/01 08:56:01;;;;;;;;;6.50;3.00;;;;;8.61;72.63;102217.38;5003677;28;45281;-59
2022/02/01 08:58:07;;;;;;;;;5.25;2.00;;;;;8.61;72.62;102205.97;5021210;28;45232;-62
2022/02/01 09:00:34;;;;;;;;;4.50;3.00;;;;;8.61;72.88;102204.22;5022126;28;45584;-62
2022/02/01 09:03:03;;;;;;;;;6.25;3.00;;;;;8.60;72.82;102214.75;5021842;28;45865;-61
2022/02/01 09:05:30;;;;;;;;;4.75;3.00;;;;;8.59;72.99;102195.50;5022817;28;45646;-62
2022/02/01 09:08:04;;;;;;;;;1.00;1.00;;;;;8.61;73.23;102198.09;5016270;28;45567;-62
2022/02/01 09:10:31;;;;;;;;;7.75;2.75;;;;;8.60;73.14;102199.00;5018720;28;45487;-62
2022/02/01 09:12:59;;;;;;;;;4.75;3.00;;;;;8.62;73.43;102184.94;5011635;28;45221;-63
2022/02/01 09:15:26;;;;;;;;;2.75;2.00;;;;;8.64;73.11;102177.00;5011950;28;45303;-62
2022/02/01 09:17:53;;;;;;;;;4.25;3.00;;;;;8.63;73.07;102172.66;5009743;28;45642;-62
2022/02/01 09:20:19;;;;;;;;;5.25;3.00;;;;;8.64;73.08;102167.34;5009547;28;46606;-62
2022/02/01 09:22:45;;;;;;;;;5.50;4.25;;;;;8.67;73.38;102177.75;5009861;28;45431;-61
2022/02/01 09:25:10;;;;;;;;;5.00;3.00;;;;;8.73;73.40;102176.75;5017322;28;45465;-62
2022/02/01 09:27:36;;;;;;;;;4.75;4.50;;;;;8.75;73.27;102176.69;5020660;28;45543;-62
2022/02/01 09:30:03;;;;;;;;;10.25;3.50;;;;;8.78;73.40;102169.59;5013011;28;46042;-62
2022/02/01 09:32:29;;;;;;;;;3.50;3.00;;;;;8.84;73.17;102176.41;5016735;28;45436;-62
2022/02/01 09:34:54;;;;;;;;;9.50;6.00;;;;;8.87;72.98;102166.69;5016513;28;45320;-62
2022/02/01 09:37:21;;;;;;;;;7.25;5.25;;;;;8.93;72.94;102169.16;5021730;28;45460;-62
2022/02/01 09:39:47;;;;;;;;;5.00;3.00;;;;;8.99;73.23;102164.59;5011800;28;46118;-62
2022/02/01 09:42:12;;;;;;;;;7.00;4.50;;;;;9.02;72.40;102167.16;5008596;28;45436;-63
2022/02/01 09:44:38;;;;;;;;;9.00;6.50;;;;;9.01;72.85;102152.28;5011107;28;45431;-62
2022/02/01 09:47:04;;;;;;;;;11.00;5.00;;;;;9.01;72.91;102152.28;5008027;28;45297;-62
2022/02/01 09:49:30;;;;;;;;;7.00;4.75;;;;;9.00;72.68;102161.91;5012161;28;45448;-62
2022/02/01 09:51:58;;;;;;;;;7.00;6.00;;;;;9.03;73.36;102163.63;5012464;28;45445;-62
2022/02/01 09:54:26;;;;;;;;;7.25;3.00;;;;;9.06;72.78;102164.38;5005181;28;45493;-62
2022/02/01 09:56:53;;;;;;;;;10.50;6.25;;;;;9.07;73.01;102168.72;5004898;28;45397;-62
2022/02/01 09:59:29;;;;;;;;;7.50;5.00;;;;;9.13;73.03;102167.69;5011149;28;45356;-62
2022/02/01 10:01:56;;;;;;;;;3.50;1.00;;;;;9.13;72.63;102165.91;5011381;28;45440;-62
2022/02/01 10:04:28;;;;;;;;;7.75;4.25;;;;;9.15;72.75;102166.72;5011086;28;45472;-62
2022/02/01 10:07:14;;;;;;;;;13.75;6.00;;;;;9.15;72.80;102166.72;5007682;28;45356;-64
2022/02/01 10:09:49;;;;;;;;;6.00;4.50;;;;;9.18;72.88;102171.03;5007562;28;46070;-64
2022/02/01 10:12:16;;;;;;;;;6.50;5.25;;;;;9.20;73.16;102175.34;5011162;28;45182;-64
2022/02/01 10:14:51;;;;;;;;;5.50;3.25;;;;;9.22;72.73;102173.50;5011370;28;45762;-64
2022/02/01 10:17:28;;;;;;;;;6.25;2.75;;;;;9.29;72.63;102182.06;5009089;28;45596;-64
2022/02/01 10:19:54;;;;;;;;;8.25;3.00;;;;;9.30;72.91;102160.13;5005864;28;45518;-64
2022/02/01 10:22:29;;;;;;;;;5.50;3.75;;;;;9.31;73.08;102159.22;5011193;28;46452;-64
2022/02/01 10:24:55;;;;;;;;;7.00;3.00;;;;;9.36;72.71;102159.09;5011484;28;45466;-65
2022/02/01 10:27:21;;;;;;;;;9.25;3.00;;;;;9.36;72.55;102156.47;5008610;28;45366;-65
2022/02/01 10:29:59;;;;;;;;;8.00;2.00;;;;;9.33;72.92;102156.56;5008652;28;46079;-64
2022/02/01 10:32:35;;;;;;;;;5.25;2.00;;;;;9.29;72.49;102150.53;5011531;28;45283;-64
2022/02/01 10:35:23;;;;;;;;;6.75;3.00;;;;;9.31;73.00;102155.72;5010633;28;45233;-64
2022/02/01 10:38:08;;;;;;;;;1.00;1.00;;;;;9.33;73.15;102138.16;5012618;28;45825;-64
2022/02/01 10:40:46;;;;;;;;;4.50;4.00;;;;;9.36;73.30;102152.06;5004971;28;45670;-64
2022/02/01 10:43:32;;;;;;;;;6.50;3.00;;;;;9.35;73.43;102141.59;5010799;28;45895;-64
2022/02/01 10:46:10;;;;;;;;;2.75;1.00;;;;;9.38;72.97;102141.47;5008680;28;45470;-64
2022/02/01 10:48:37;;;;;;;;;6.00;3.00;;;;;9.42;72.92;102130.84;5009881;28;45289;-63
2022/02/01 10:51:08;;;;;;;;;18.50;5.00;;;;;9.47;73.21;102130.66;5009548;28;45472;-63
2022/02/01 10:53:35;;;;;;;;;4.75;2.00;;;;;9.45;72.95;102130.72;5008264;28;45475;-64
2022/02/01 10:56:03;;;;;;;;;4.50;4.00;;;;;9.50;73.15;102123.56;5009836;28;45504;-64
2022/02/01 10:58:29;;;;;;;;;3.00;2.25;;;;;9.49;73.19;102120.97;5009580;28;45298;-64
2022/02/01 11:00:56;;;;;;;;;4.00;2.50;;;;;9.49;73.17;102119.19;5007216;28;45478;-64
2022/02/01 11:03:22;;;;;;;;;5.00;2.75;;;;;9.50;73.23;102117.44;5010622;28;45357;-64
2022/02/01 11:05:50;;;;;;;;;6.00;3.00;;;;;9.47;73.19;102107.00;5008560;28;45757;-64
2022/02/01 11:08:22;;;;;;;;;8.00;4.00;;;;;9.48;73.57;102096.44;5008768;28;45301;-65
2022/02/01 11:10:52;;;;;;;;;3.50;2.50;;;;;9.52;73.37;102090.16;5003624;28;46057;-63
2022/02/01 11:13:18;;;;;;;;;3.75;2.00;;;;;9.55;73.33;102085.69;5010598;28;45352;-60
2022/02/01 11:16:02;;;;;;;;;6.75;3.00;;;;;9.60;73.61;102086.41;5008436;28;45384;-61
2022/02/01 11:18:29;;;;;;;;;2.50;2.00;;;;;9.63;73.22;102095.03;5007365;28;45221;-61
2022/02/01 11:21:03;;;;;;;;;2.00;2.00;;;;;9.68;73.07;102082.59;5007780;28;45415;-61
2022/02/01 11:23:46;;;;;;;;;3.75;2.00;;;;;9.70;73.21;102072.88;5008379;28;45442;-59
2022/02/01 11:26:54;;;;;;;;;2.75;2.75;;;;;9.72;73.30;102078.97;5011095;28;45483;-61
2022/02/01 11:30:01;;;;;;;;;4.25;2.00;;;;;9.74;73.61;102090.31;5014384;28;45426;-61
2022/02/01 11:32:33;;;;;;;;;6.00;2.00;;;;;9.77;73.18;102084.06;5015365;28;45757;-61
2022/02/01 11:35:12;;;;;;;;;3.25;2.00;;;;;9.77;73.62;102070.91;5013403;28;45521;-59
2022/02/01 11:37:48;;;;;;;;;2.00;2.00;;;;;9.80;73.29;102081.34;5015117;28;45512;-58
2022/02/01 11:40:15;;;;;;;;;4.00;3.00;;;;;9.86;73.70;102072.34;5012511;28;45388;-58
2022/02/01 11:43:00;;;;;;;;;6.00;3.50;;;;;9.89;73.59;102059.09;5009463;28;45428;-60
2022/02/01 11:45:40;;;;;;;;;3.75;3.00;;;;;9.91;73.29;102055.50;5012526;28;45229;-60
2022/02/01 11:48:18;;;;;;;;;5.50;2.00;;;;;9.98;73.42;102061.41;5013041;28;45370;-58
2022/02/01 11:50:46;;;;;;;;;3.00;2.25;;;;;10.04;73.57;102067.31;5014365;28;45558;-58
2022/02/01 11:53:19;;;;;;;;;2.00;2.00;;;;;10.11;73.06;102059.19;5010591;28;45471;-59
2022/02/01 11:55:48;;;;;;;;;6.25;3.50;;;;;10.17;73.06;102056.31;5011112;28;45652;-60
2022/02/01 11:58:13;;;;;;;;;3.75;3.00;;;;;10.16;73.16;102051.97;5013744;28;45371;-60
2022/02/01 12:00:41;;;;;;;;;8.00;3.75;;;;;10.15;73.50;102053.75;5013872;28;45538;-63
2022/02/01 12:03:09;;;;;;;;;6.25;3.00;;;;;10.13;73.49;102055.59;5011157;28;45768;-62
2022/02/01 12:05:42;;;;;;;;;5.75;3.75;;;;;10.12;73.59;102055.66;5011626;28;45312;-63
2022/02/01 12:08:14;;;;;;;;;5.00;5.00;;;;;10.08;73.47;102054.88;5012102;28;45367;-59
2022/02/01 12:10:50;;;;;;;;;4.00;3.25;;;;;10.06;73.92;102059.34;5015196;28;45428;-59
2022/02/01 12:13:18;;;;;;;;;5.00;5.00;;;;;10.06;73.71;102048.84;5013267;28;45302;-62
2022/02/01 12:15:45;;;;;;;;;8.00;3.00;;;;;10.08;73.98;102054.88;5010946;28;46416;-60
2022/02/01 12:18:37;;;;;;;;;8.25;3.75;;;;;10.09;73.97;102056.59;5016868;28;45492;-60
2022/02/01 12:21:05;;;;;;;;;3.00;3.00;;;;;10.08;73.86;102045.22;5016301;28;45749;-61
2022/02/01 12:23:34;;;;;;;;;4.00;3.00;;;;;10.09;74.46;102043.44;5010012;28;45507;-61
2022/02/01 12:25:59;;;;;;;;;4.50;4.50;;;;;10.07;74.31;102032.97;5011460;28;45427;-61
2022/02/01 12:28:31;;;;;;;;;6.00;4.00;;;;;10.08;74.81;102029.41;5012715;28;45493;-62
2022/02/01 12:31:13;;;;;;;;;2.50;1.00;;;;;10.09;74.19;102025.00;5013006;28;45414;-59
2022/02/01 12:33:44;;;;;;;;;6.50;5.00;;;;;10.09;74.93;102014.47;5011740;28;46106;-62
2022/02/01 12:36:14;;;;;;;;;5.75;5.00;;;;;10.07;74.47;102006.66;5012024;28;45412;-65
2022/02/01 12:38:40;;;;;;;;;6.25;6.00;;;;;10.08;74.71;102015.41;5012852;28;45520;-71
2022/02/01 12:41:15;;;;;;;;;6.25;3.00;;;;;10.13;75.58;102010.84;5010589;28;45532;-65
2022/02/01 12:47:01;;;;;;;;;7.00;4.00;;;;;10.20;75.59;102000.94;5012221;28;45322;-62
2022/02/01 12:49:44;;;;;;;;;8.00;2.75;;;;;10.21;75.21;102003.50;5013075;28;45302;-64
2022/02/01 12:52:27;;;;;;;;;6.75;6.75;;;;;10.23;75.80;101988.53;5011795;28;45345;-60
2022/02/01 12:55:04;;;;;;;;;4.00;4.00;;;;;10.22;75.51;101973.66;5012157;28;45326;-61
2022/02/01 12:57:32;;;;;;;;;5.00;5.00;;;;;10.21;75.55;101979.81;5012075;28;45365;-64
2022/02/01 13:00:00;;;;;;;;;7.00;3.00;;;;;10.25;75.62;101975.31;5012185;28;45503;-62
2022/02/01 13:02:33;;;;;;;;;4.75;4.00;;;;;10.23;75.85;101966.63;5010405;28;45199;-60
2022/02/01 13:05:03;;;;;;;;;3.75;3.75;;;;;10.27;75.92;101974.34;5011054;28;45369;-62